Главная страница
METAR-TAF:

METAR-TAF

Аэропорты :

Hemavan, Швеция

широта: 65-48-22N, долгота: 015-04-58E, высота над уровнем моря: 458 м

Текущие метеонаблюдения

Эта сводка был подготовлена 37 минут назад, в 19:50 UTC
Ветер 3 Узел от восточно-юго-восточный, изменяющийся между восточный и юго-юго-восточный
Температура 13°C
Влажность 72%
Давление 1011 hPa
Видимость 10 км и более

METAR: ESUT 131950Z AUTO 12003KT 090V150 9999 BKN076/// 13/08 Q1011

Время: 22:27 (20:27 UTC)


TAF: отсутствует

Метеонаблюдения и прогнозы для более 4000 аэропортов (сводки METAR и TAF).

Имеющиеся станции представлены на карте желтыми и красными точками.

Чтобы увидеть название станции, наведите на нее мышь.

Затем щелкните, чтобы увидеть метеонаблюдения и метеопрогнозы.

Управление картой: чтобы увеличить масштаб, щелкните зеленые кнопки с черным крестиком; чтобы уменьшить масштаб, щелкните зеленую кнопку с тире; для просмотра соседних карт щелкайте зеленые стрелки.


METAR-TAF: